Time;durP1;ratioP1;P1;durP2;ratioP2;P2;SDS_P1;SDS_P2;PMS_P1;PMS_P2;Temp;Humidity;BMP_temperature;BMP_pressure;BME280_temperature;BME280_humidity;BME280_pressure;Samples;Min_cycle;Max_cycle;Signal;HPM_P1;HPM_P2
2023/06/29 00:01:11;;;;;;;3.38;2.33;;;25.90;68.10;;;;;;5035104;28;20458;-84
2023/06/29 00:03:36;;;;;;;3.38;1.83;;;25.80;68.10;;;;;;5034703;28;20377;-84
2023/06/29 00:06:02;;;;;;;6.60;2.28;;;25.80;68.20;;;;;;5017191;28;20044;-84
2023/06/29 00:08:29;;;;;;;3.70;1.92;;;25.80;68.20;;;;;;5016832;28;20048;-84
2023/06/29 00:10:56;;;;;;;4.53;2.35;;;25.80;68.20;;;;;;5024629;28;20382;-84
2023/06/29 00:13:22;;;;;;;3.00;2.10;;;25.80;68.50;;;;;;5016861;28;20070;-84
2023/06/29 00:15:48;;;;;;;3.05;2.10;;;25.80;68.20;;;;;;5035040;28;20048;-83
2023/06/29 00:18:15;;;;;;;2.75;1.85;;;25.80;68.50;;;;;;5034772;28;20056;-83
2023/06/29 00:20:42;;;;;;;3.15;2.30;;;25.80;68.90;;;;;;5034501;28;20029;-83
2023/06/29 00:23:09;;;;;;;3.72;2.00;;;25.80;69.00;;;;;;5035188;28;20049;-84
2023/06/29 00:25:35;;;;;;;3.95;2.33;;;25.90;69.30;;;;;;5034349;28;20462;-83
2023/06/29 00:28:01;;;;;;;3.13;2.10;;;25.90;69.10;;;;;;5033787;28;20056;-84
2023/06/29 00:30:27;;;;;;;3.75;2.40;;;25.80;68.80;;;;;;5034057;28;20041;-84
2023/06/29 00:32:53;;;;;;;3.15;2.00;;;25.80;68.80;;;;;;5034718;28;20063;-84
2023/06/29 00:35:19;;;;;;;3.97;2.40;;;25.80;68.70;;;;;;5034415;28;20041;-84
2023/06/29 00:37:45;;;;;;;5.18;2.08;;;25.80;68.90;;;;;;5034525;28;20462;-84
2023/06/29 00:40:11;;;;;;;4.05;2.10;;;25.70;69.10;;;;;;5034204;28;20067;-84
2023/06/29 00:42:37;;;;;;;2.30;2.10;;;25.70;69.10;;;;;;5032974;28;20026;-84
2023/06/29 00:45:04;;;;;;;3.38;2.25;;;25.70;69.10;;;;;;5032796;28;20070;-84
2023/06/29 00:47:31;;;;;;;3.17;2.00;;;25.60;69.10;;;;;;5034410;28;20037;-84
2023/06/29 00:49:57;;;;;;;4.63;2.13;;;25.70;69.20;;;;;;5034201;28;20025;-85
2023/06/29 00:52:23;;;;;;;3.40;2.15;;;25.70;69.30;;;;;;5034032;28;20044;-85
2023/06/29 00:54:50;;;;;;;3.60;2.13;;;25.70;69.20;;;;;;5033885;28;20021;-85
2023/06/29 00:57:16;;;;;;;4.53;2.40;;;25.60;69.20;;;;;;5033778;28;20037;-84
2023/06/29 00:59:42;;;;;;;4.43;2.13;;;25.60;69.40;;;;;;5033828;28;20112;-84
2023/06/29 01:02:10;;;;;;;2.78;2.22;;;25.60;69.40;;;;;;5034226;28;20123;-84
2023/06/29 01:04:37;;;;;;;3.38;2.08;;;25.50;69.40;;;;;;5034009;28;20022;-84
2023/06/29 01:07:15;;;;;;;4.65;2.17;;;25.50;69.60;;;;;;5031299;28;20072;-85
2023/06/29 01:09:44;;;;;;;4.13;2.30;;;25.50;69.70;;;;;;5018348;28;20111;-85
2023/06/29 01:12:15;;;;;;;4.13;2.08;;;25.50;69.70;;;;;;5015806;28;20397;-85
2023/06/29 01:14:42;;;;;;;3.83;2.28;;;25.50;69.80;;;;;;5034015;28;20072;-84
2023/06/29 01:17:18;;;;;;;2.72;1.75;;;25.50;69.90;;;;;;5033072;28;20049;-84
2023/06/29 01:19:48;;;;;;;2.60;2.00;;;25.50;69.90;;;;;;5033338;28;20038;-85
2023/06/29 01:22:35;;;;;;;3.53;2.47;;;25.50;70.00;;;;;;5033042;28;20032;-84
2023/06/29 01:25:01;;;;;;;2.92;2.00;;;25.50;70.00;;;;;;5033592;28;20112;-84
2023/06/29 01:27:27;;;;;;;5.25;2.30;;;25.50;69.80;;;;;;5032566;28;20040;-84
2023/06/29 01:29:55;;;;;;;4.00;2.50;;;25.60;69.90;;;;;;5033258;28;20022;-84
2023/06/29 01:32:21;;;;;;;3.40;2.40;;;25.50;69.70;;;;;;5033648;28;20025;-84
2023/06/29 01:34:47;;;;;;;5.40;2.20;;;25.60;69.70;;;;;;5033500;28;20041;-84
2023/06/29 01:37:17;;;;;;;7.22;2.15;;;25.60;69.70;;;;;;5032922;28;20103;-84
2023/06/29 01:40:06;;;;;;;3.80;2.17;;;25.50;69.60;;;;;;5033127;28;20033;-84
2023/06/29 01:42:34;;;;;;;7.32;2.47;;;25.60;69.60;;;;;;5019822;28;20029;-84
2023/06/29 01:45:01;;;;;;;2.83;2.08;;;25.50;69.50;;;;;;5011557;28;20422;-83
2023/06/29 01:47:29;;;;;;;3.65;2.58;;;25.50;69.50;;;;;;5033040;28;20039;-84
2023/06/29 01:49:55;;;;;;;3.50;2.25;;;25.50;69.40;;;;;;5033706;28;20056;-84
2023/06/29 01:52:21;;;;;;;4.25;2.58;;;25.50;69.40;;;;;;5015018;28;20034;-84
2023/06/29 01:54:47;;;;;;;3.83;2.50;;;25.60;69.50;;;;;;5027309;28;20076;-85
2023/06/29 01:57:12;;;;;;;4.43;2.40;;;25.60;69.20;;;;;;5029827;28;20026;-85
2023/06/29 01:59:39;;;;;;;4.22;2.55;;;25.60;69.20;;;;;;5033421;28;20057;-84
2023/06/29 02:02:05;;;;;;;3.90;2.28;;;25.60;69.00;;;;;;5032817;28;20144;-84
2023/06/29 02:04:31;;;;;;;3.35;2.30;;;25.70;68.70;;;;;;5029453;28;20536;-84
2023/06/29 02:06:57;;;;;;;2.20;1.75;;;25.70;68.40;;;;;;5028718;28;20116;-84
2023/06/29 02:09:23;;;;;;;5.10;2.50;;;25.70;68.30;;;;;;5032703;28;20104;-84
2023/06/29 02:11:48;;;;;;;4.50;2.03;;;25.70;68.20;;;;;;5028147;28;20046;-85
2023/06/29 02:14:17;;;;;;;3.97;2.13;;;25.70;68.10;;;;;;5023840;28;20448;-80
2023/06/29 02:16:43;;;;;;;6.57;2.05;;;25.70;67.90;;;;;;5029845;28;20026;-80
2023/06/29 02:19:09;;;;;;;3.60;1.90;;;25.60;67.60;;;;;;5030796;28;20473;-80
2023/06/29 02:21:35;;;;;;;3.83;2.00;;;25.60;67.50;;;;;;5032503;28;20059;-80
2023/06/29 02:24:00;;;;;;;2.45;1.60;;;25.60;66.80;;;;;;5032490;28;20478;-80
2023/06/29 02:26:26;;;;;;;3.13;1.45;;;25.60;66.30;;;;;;5031826;28;20501;-80
2023/06/29 02:28:52;;;;;;;2.47;1.42;;;25.60;66.20;;;;;;5032240;28;20026;-80
2023/06/29 02:31:17;;;;;;;4.28;1.67;;;25.60;66.30;;;;;;5032563;28;20466;-81
2023/06/29 02:33:44;;;;;;;2.75;1.85;;;25.60;66.10;;;;;;5032635;28;20029;-81
2023/06/29 02:36:10;;;;;;;2.60;1.63;;;25.60;66.10;;;;;;5032408;28;20053;-81
2023/06/29 02:38:37;;;;;;;2.97;2.05;;;25.50;66.20;;;;;;5032216;28;20060;-80
2023/06/29 02:41:03;;;;;;;2.38;1.75;;;25.50;66.50;;;;;;5032202;28;20461;-80
2023/06/29 02:43:28;;;;;;;2.38;1.80;;;25.40;66.60;;;;;;5032370;28;20060;-80
2023/06/29 02:45:54;;;;;;;3.85;2.40;;;25.40;67.00;;;;;;5032236;28;20143;-80
2023/06/29 02:48:20;;;;;;;4.40;2.65;;;25.40;67.70;;;;;;5031957;28;20034;-80
2023/06/29 02:50:45;;;;;;;5.93;3.08;;;25.30;68.10;;;;;;5032259;28;20026;-80
2023/06/29 02:53:14;;;;;;;3.38;2.22;;;25.20;68.50;;;;;;5032432;28;20668;-80
2023/06/29 02:55:40;;;;;;;4.68;2.63;;;25.20;68.90;;;;;;5032030;28;20036;-80
2023/06/29 02:58:06;;;;;;;4.72;2.40;;;25.10;69.40;;;;;;5031068;28;20025;-80
2023/06/29 03:00:31;;;;;;;2.85;2.50;;;25.10;69.70;;;;;;5031935;28;20416;-79
2023/06/29 03:02:57;;;;;;;3.22;2.60;;;25.10;69.80;;;;;;5032334;28;20026;-79
2023/06/29 03:05:22;;;;;;;3.35;2.42;;;25.10;70.00;;;;;;5032385;28;20057;-80
2023/06/29 03:07:48;;;;;;;5.63;3.03;;;25.20;70.30;;;;;;5032696;28;20040;-80
2023/06/29 03:10:14;;;;;;;3.85;2.95;;;25.10;70.40;;;;;;5035132;28;20034;-80
2023/06/29 03:12:41;;;;;;;3.70;2.70;;;25.10;70.70;;;;;;5036019;28;20029;-79
2023/06/29 03:15:07;;;;;;;4.50;2.65;;;25.10;70.80;;;;;;5035515;28;20531;-80
2023/06/29 03:17:33;;;;;;;4.70;2.67;;;25.10;70.90;;;;;;5035590;28;20028;-79
2023/06/29 03:19:58;;;;;;;4.43;2.75;;;25.10;71.10;;;;;;5035004;28;20033;-80
2023/06/29 03:22:27;;;;;;;6.40;2.53;;;25.00;71.20;;;;;;5035765;28;20490;-80
2023/06/29 03:24:53;;;;;;;3.42;2.53;;;25.00;71.50;;;;;;5017619;28;20026;-79
2023/06/29 03:27:19;;;;;;;5.32;2.80;;;25.00;71.50;;;;;;5035752;28;20100;-80
2023/06/29 03:29:49;;;;;;;4.35;3.13;;;24.90;71.60;;;;;;5035531;28;20045;-80
2023/06/29 03:32:15;;;;;;;2.53;2.25;;;24.80;71.70;;;;;;5035656;28;20033;-80
2023/06/29 03:34:41;;;;;;;3.47;2.60;;;24.80;71.90;;;;;;5035478;28;20029;-80
2023/06/29 03:37:07;;;;;;;6.15;2.47;;;24.80;72.00;;;;;;5035712;28;20026;-80
2023/06/29 03:39:33;;;;;;;6.55;3.00;;;24.80;72.00;;;;;;5035046;28;20041;-80
2023/06/29 03:41:58;;;;;;;3.30;2.70;;;24.80;71.80;;;;;;5035470;28;20022;-80
2023/06/29 03:44:24;;;;;;;2.88;2.22;;;24.70;71.70;;;;;;5035165;28;20029;-80
2023/06/29 03:46:49;;;;;;;3.83;2.28;;;24.70;71.50;;;;;;5035343;28;20021;-80
2023/06/29 03:49:15;;;;;;;4.97;2.60;;;24.60;71.50;;;;;;5034855;28;20114;-80
2023/06/29 03:51:41;;;;;;;4.47;2.10;;;24.60;71.50;;;;;;5035268;28;20030;-81
2023/06/29 03:54:07;;;;;;;3.10;2.13;;;24.60;71.60;;;;;;5035249;28;20038;-81
2023/06/29 03:56:33;;;;;;;4.03;2.50;;;24.50;71.80;;;;;;5016689;28;20031;-81
2023/06/29 03:58:59;;;;;;;4.53;2.80;;;24.40;72.00;;;;;;5034657;28;20034;-81
2023/06/29 04:01:24;;;;;;;4.25;2.58;;;24.40;72.30;;;;;;5035329;28;20025;-81
2023/06/29 04:03:50;;;;;;;4.35;2.67;;;24.40;72.20;;;;;;5035763;28;20430;-81
2023/06/29 04:06:16;;;;;;;4.22;2.38;;;24.40;72.20;;;;;;5035272;28;20068;-81
2023/06/29 04:08:41;;;;;;;3.22;2.03;;;24.40;72.20;;;;;;5035319;28;20026;-81
2023/06/29 04:11:09;;;;;;;3.35;2.20;;;24.40;71.90;;;;;;5035236;28;20049;-81
2023/06/29 04:13:35;;;;;;;4.07;2.10;;;24.30;71.50;;;;;;5035428;28;20034;-81
2023/06/29 04:16:01;;;;;;;3.33;2.05;;;24.20;71.40;;;;;;5035162;28;20147;-81
2023/06/29 04:18:26;;;;;;;2.10;1.60;;;24.20;71.30;;;;;;5034949;28;20393;-81
2023/06/29 04:20:54;;;;;;;5.57;1.83;;;24.00;71.40;;;;;;5034971;28;20038;-81
2023/06/29 04:23:20;;;;;;;2.63;1.70;;;24.00;71.60;;;;;;5034873;28;20105;-81
2023/06/29 04:25:45;;;;;;;4.43;1.50;;;24.00;71.70;;;;;;5034314;28;20075;-81
2023/06/29 04:28:12;;;;;;;2.90;1.83;;;24.00;71.90;;;;;;5034892;28;20029;-81
2023/06/29 04:30:42;;;;;;;3.15;1.65;;;24.00;71.90;;;;;;5015204;28;20026;-80
2023/06/29 04:33:10;;;;;;;2.35;1.65;;;24.10;71.50;;;;;;5015089;28;20044;-79
2023/06/29 04:35:40;;;;;;;2.33;1.40;;;24.20;71.10;;;;;;5015171;28;20032;-80
2023/06/29 04:38:06;;;;;;;2.50;1.30;;;24.20;70.80;;;;;;5018521;28;20036;-80
2023/06/29 04:40:32;;;;;;;3.28;1.63;;;24.20;70.50;;;;;;5034954;28;20056;-79
2023/06/29 04:42:57;;;;;;;1.90;1.50;;;24.20;70.30;;;;;;5017021;28;20477;-80
2023/06/29 04:45:24;;;;;;;1.83;1.40;;;24.20;70.00;;;;;;5034616;28;20506;-80
2023/06/29 04:47:50;;;;;;;2.55;1.48;;;24.20;69.80;;;;;;5034492;28;20425;-80
2023/06/29 04:50:25;;;;;;;2.17;1.25;;;24.20;69.90;;;;;;5034959;28;20026;-80
2023/06/29 04:52:54;;;;;;;2.53;1.40;;;24.30;69.80;;;;;;5034568;28;20033;-80
2023/06/29 04:55:20;;;;;;;2.08;1.15;;;24.30;69.60;;;;;;5034157;28;20033;-80
2023/06/29 04:57:46;;;;;;;2.75;1.52;;;24.40;69.30;;;;;;5034305;28;20026;-80
2023/06/29 05:00:12;;;;;;;1.50;1.10;;;24.40;69.10;;;;;;5034325;28;20420;-80
2023/06/29 05:02:38;;;;;;;2.47;1.58;;;24.50;68.80;;;;;;5034133;28;20013;-80
2023/06/29 05:05:05;;;;;;;1.83;1.15;;;24.50;68.50;;;;;;5034192;28;20033;-80
2023/06/29 05:07:33;;;;;;;3.33;1.40;;;24.50;68.60;;;;;;5034178;28;20025;-80
2023/06/29 05:09:58;;;;;;;3.85;1.40;;;24.50;68.50;;;;;;5034895;28;20038;-80
2023/06/29 05:12:25;;;;;;;2.53;1.27;;;24.50;68.60;;;;;;5034096;28;20072;-80
2023/06/29 05:14:50;;;;;;;2.28;1.10;;;24.50;68.50;;;;;;5034401;28;20139;-80
2023/06/29 05:17:17;;;;;;;1.85;1.30;;;24.50;68.60;;;;;;5034368;28;20056;-80
2023/06/29 05:19:44;;;;;;;1.58;1.30;;;24.50;68.70;;;;;;5016191;28;20026;-81
2023/06/29 05:22:10;;;;;;;2.40;1.20;;;24.50;68.80;;;;;;5034288;28;20458;-80
2023/06/29 05:24:37;;;;;;;2.67;1.50;;;24.50;68.90;;;;;;5033364;28;20022;-79
2023/06/29 05:27:06;;;;;;;3.97;1.52;;;24.50;69.00;;;;;;5033745;28;20339;-80
2023/06/29 05:29:31;;;;;;;3.80;1.70;;;24.50;69.10;;;;;;5033856;28;20108;-80
2023/06/29 05:31:57;;;;;;;3.95;1.92;;;24.50;69.10;;;;;;5032996;28;20227;-80
2023/06/29 05:34:23;;;;;;;3.67;1.20;;;24.60;69.10;;;;;;5033550;28;20474;-80
2023/06/29 05:36:48;;;;;;;2.08;1.30;;;24.60;69.10;;;;;;5033139;28;20450;-79
2023/06/29 05:39:14;;;;;;;1.60;1.08;;;24.60;69.60;;;;;;5033497;28;20029;-80
2023/06/29 05:41:40;;;;;;;4.72;1.48;;;24.60;69.00;;;;;;5032995;28;20026;-80
2023/06/29 05:44:08;;;;;;;4.63;1.70;;;24.70;68.90;;;;;;5033256;28;20474;-80
2023/06/29 05:46:34;;;;;;;7.50;1.95;;;24.70;69.10;;;;;;5033221;28;20051;-80
2023/06/29 05:49:01;;;;;;;2.22;1.50;;;24.70;69.10;;;;;;5032293;28;20033;-80
2023/06/29 05:51:27;;;;;;;2.92;1.30;;;24.70;69.00;;;;;;5014787;28;20046;-80
2023/06/29 05:53:53;;;;;;;3.20;1.50;;;24.70;69.30;;;;;;5032609;28;20037;-80
2023/06/29 05:56:18;;;;;;;2.97;1.52;;;24.80;69.00;;;;;;5033334;28;20028;-80
2023/06/29 05:58:44;;;;;;;3.17;1.58;;;24.80;69.20;;;;;;5033194;28;20026;-80
2023/06/29 06:01:10;;;;;;;1.98;1.10;;;24.80;69.20;;;;;;5009891;28;20072;-80
2023/06/29 06:03:36;;;;;;;1.58;1.20;;;24.80;69.00;;;;;;5030785;28;20053;-81
2023/06/29 06:06:02;;;;;;;1.58;1.27;;;24.80;68.90;;;;;;5030967;28;20492;-80
2023/06/29 06:08:28;;;;;;;3.33;1.35;;;24.80;68.80;;;;;;5017076;28;20030;-81
2023/06/29 06:10:54;;;;;;;4.38;1.40;;;24.80;69.00;;;;;;5032877;28;20421;-80
2023/06/29 06:13:19;;;;;;;3.55;1.30;;;24.80;69.00;;;;;;5029218;28;20038;-80
2023/06/29 06:15:45;;;;;;;2.67;1.02;;;24.80;69.10;;;;;;5032058;28;20044;-80
2023/06/29 06:18:11;;;;;;;2.13;1.15;;;24.80;69.20;;;;;;5033160;28;20029;-81
2023/06/29 06:20:36;;;;;;;2.17;1.00;;;24.80;69.00;;;;;;5027942;28;20010;-80
2023/06/29 06:23:02;;;;;;;2.83;1.27;;;24.90;69.20;;;;;;5032725;28;20025;-80
2023/06/29 06:25:28;;;;;;;1.80;1.27;;;24.90;69.10;;;;;;5032865;28;20080;-80
2023/06/29 06:27:54;;;;;;;1.45;1.15;;;24.90;69.10;;;;;;5015309;28;20041;-80
2023/06/29 06:30:21;;;;;;;1.92;1.40;;;24.90;69.00;;;;;;5017216;28;20024;-80
2023/06/29 06:32:46;;;;;;;2.05;1.00;;;24.90;68.90;;;;;;5029149;28;20071;-79
2023/06/29 06:35:12;;;;;;;2.67;1.20;;;24.90;69.00;;;;;;5029715;28;20137;-83
2023/06/29 06:37:39;;;;;;;3.55;1.15;;;25.00;69.20;;;;;;5030261;28;20034;-84
2023/06/29 06:40:07;;;;;;;1.83;1.30;;;24.90;69.10;;;;;;5025695;28;20025;-84
2023/06/29 06:42:34;;;;;;;1.40;1.23;;;24.90;69.10;;;;;;5032806;28;20551;-83
2023/06/29 06:45:03;;;;;;;2.45;1.50;;;24.90;69.20;;;;;;5035239;28;20072;-83
2023/06/29 06:47:30;;;;;;;1.30;1.20;;;25.00;69.40;;;;;;5033727;28;20026;-81
2023/06/29 06:49:56;;;;;;;1.27;1.08;;;24.90;69.40;;;;;;5035438;28;20565;-82
2023/06/29 06:52:22;;;;;;;5.70;1.60;;;25.00;69.60;;;;;;5034836;28;20036;-82
2023/06/29 06:54:48;;;;;;;3.38;1.55;;;25.00;69.80;;;;;;5034607;28;20029;-81
2023/06/29 06:57:13;;;;;;;3.38;1.40;;;25.00;69.90;;;;;;5036067;28;20037;-83
2023/06/29 06:59:39;;;;;;;2.15;1.35;;;25.10;70.00;;;;;;5036642;28;20361;-81
2023/06/29 07:02:05;;;;;;;1.67;1.17;;;25.10;70.30;;;;;;5037056;28;20021;-80
2023/06/29 07:04:31;;;;;;;3.15;1.52;;;25.20;70.50;;;;;;5036020;28;20030;-80
2023/06/29 07:06:57;;;;;;;1.80;1.35;;;25.20;70.60;;;;;;5036078;28;20036;-81
2023/06/29 07:09:23;;;;;;;4.68;1.52;;;25.20;70.60;;;;;;5036366;28;20017;-78
2023/06/29 07:11:49;;;;;;;2.63;1.38;;;25.20;70.80;;;;;;5036293;28;20050;-78
2023/06/29 07:14:16;;;;;;;1.50;1.40;;;25.30;70.90;;;;;;5036515;28;20029;-79
2023/06/29 07:16:41;;;;;;;3.45;1.60;;;25.30;71.10;;;;;;5018945;28;20036;-79
2023/06/29 07:19:12;;;;;;;3.25;1.30;;;25.30;71.30;;;;;;5036289;28;20033;-79
2023/06/29 07:21:38;;;;;;;1.70;1.30;;;25.30;71.30;;;;;;5036115;28;20029;-80
2023/06/29 07:24:04;;;;;;;2.20;1.33;;;25.40;71.30;;;;;;5036007;28;20040;-80
2023/06/29 07:26:30;;;;;;;1.92;1.42;;;25.40;71.40;;;;;;5036326;28;20021;-80
2023/06/29 07:28:56;;;;;;;3.08;1.50;;;25.50;71.50;;;;;;5036186;28;20566;-80
2023/06/29 07:31:29;;;;;;;4.88;1.35;;;25.60;71.50;;;;;;5018615;28;20036;-80
2023/06/29 07:33:55;;;;;;;3.70;1.50;;;25.60;71.70;;;;;;5036161;28;20032;-80
2023/06/29 07:36:25;;;;;;;4.32;1.23;;;25.60;71.60;;;;;;5036653;28;20405;-78
2023/06/29 07:38:51;;;;;;;1.35;1.17;;;25.50;71.90;;;;;;5034808;28;20509;-78
2023/06/29 07:41:18;;;;;;;1.92;1.40;;;25.60;72.10;;;;;;5035234;28;20095;-78
2023/06/29 07:43:52;;;;;;;4.30;1.52;;;25.70;72.60;;;;;;5018306;28;20020;-78
2023/06/29 07:46:18;;;;;;;3.22;1.30;;;25.70;72.30;;;;;;5035294;28;20021;-78
2023/06/29 07:48:43;;;;;;;1.35;1.10;;;25.80;72.50;;;;;;5016585;28;20525;-78
2023/06/29 07:51:10;;;;;;;2.70;1.30;;;25.90;71.90;;;;;;5027174;28;20120;-77
2023/06/29 07:53:36;;;;;;;3.30;1.30;;;25.90;71.90;;;;;;5034882;28;20037;-78
2023/06/29 07:56:02;;;;;;;2.40;1.60;;;25.90;72.00;;;;;;5035779;28;20029;-77
2023/06/29 07:58:27;;;;;;;2.70;1.27;;;26.00;72.60;;;;;;5035568;28;20047;-77
2023/06/29 08:00:54;;;;;;;1.95;1.33;;;26.00;72.40;;;;;;5026263;28;20083;-77
2023/06/29 08:03:21;;;;;;;2.25;1.30;;;26.10;72.40;;;;;;5018361;28;20029;-78
2023/06/29 08:05:47;;;;;;;4.90;1.58;;;26.20;72.10;;;;;;5031287;28;20041;-77
2023/06/29 08:08:12;;;;;;;2.05;1.33;;;26.20;72.30;;;;;;5024477;28;20030;-78
2023/06/29 08:10:38;;;;;;;1.60;1.20;;;26.30;72.10;;;;;;5035199;28;20481;-79
2023/06/29 08:13:04;;;;;;;2.35;1.20;;;26.30;72.10;;;;;;5019844;28;20057;-78
2023/06/29 08:15:30;;;;;;;1.90;1.08;;;26.40;72.20;;;;;;5014967;28;20026;-78
2023/06/29 08:17:55;;;;;;;4.22;1.35;;;26.50;72.60;;;;;;5005023;28;20049;-78
2023/06/29 08:20:22;;;;;;;2.08;1.42;;;26.50;72.80;;;;;;5021070;28;20034;-79
2023/06/29 08:22:48;;;;;;;3.55;1.73;;;26.60;73.30;;;;;;5027188;28;20026;-78
2023/06/29 08:25:15;;;;;;;1.60;1.45;;;26.60;73.40;;;;;;5033943;28;20442;-79
2023/06/29 08:27:41;;;;;;;1.60;1.08;;;26.70;73.60;;;;;;5034047;28;20119;-79
2023/06/29 08:30:08;;;;;;;1.83;0.95;;;26.70;73.50;;;;;;5033997;28;20369;-83
2023/06/29 08:32:34;;;;;;;3.72;1.60;;;26.80;73.50;;;;;;5034431;28;20060;-82
2023/06/29 08:35:00;;;;;;;2.80;1.30;;;26.90;73.10;;;;;;5025451;28;20063;-82
2023/06/29 08:37:28;;;;;;;2.17;1.30;;;26.90;73.20;;;;;;5017662;28;20405;-82
2023/06/29 08:39:54;;;;;;;2.80;1.40;;;27.00;73.20;;;;;;5020037;28;20039;-82
2023/06/29 08:42:20;;;;;;;1.40;1.30;;;27.00;73.70;;;;;;5020250;28;20048;-82
2023/06/29 08:44:46;;;;;;;2.78;1.55;;;27.10;74.10;;;;;;5027253;28;20021;-82
2023/06/29 08:47:12;;;;;;;2.83;1.77;;;27.20;74.10;;;;;;5025907;28;20068;-82
2023/06/29 08:49:41;;;;;;;2.30;1.10;;;27.20;74.10;;;;;;5021464;28;20038;-82
2023/06/29 08:52:11;;;;;;;4.05;1.45;;;27.30;73.10;;;;;;5021490;28;20030;-82
2023/06/29 08:54:37;;;;;;;;;;;27.30;73.20;;;;;;5026247;28;20044;-82
2023/06/29 08:57:05;;;;;;;1.58;1.38;;;27.40;74.30;;;;;;5025734;28;19909;-82
2023/06/29 08:59:31;;;;;;;2.13;1.30;;;27.40;73.50;;;;;;5009586;28;20017;-82
2023/06/29 09:02:00;;;;;;;1.65;1.20;;;27.50;74.20;;;;;;5004901;28;20034;-82
2023/06/29 09:04:26;;;;;;;1.98;1.50;;;27.50;73.20;;;;;;5025833;28;20501;-83
2023/06/29 09:06:55;;;;;;;2.22;1.65;;;27.60;72.80;;;;;;5019222;28;20037;-83
2023/06/29 09:09:22;;;;;;;2.35;1.20;;;27.70;73.00;;;;;;5019735;28;20069;-83
2023/06/29 09:11:48;;;;;;;2.72;1.40;;;27.80;73.70;;;;;;5001625;28;20049;-83
2023/06/29 09:14:14;;;;;;;1.98;1.35;;;27.90;72.50;;;;;;5010863;28;20038;-83
2023/06/29 09:16:54;;;;;;;1.13;1.02;;;27.90;72.40;;;;;;5013991;28;20513;-82
2023/06/29 09:19:20;;;;;;;2.10;1.17;;;28.00;71.80;;;;;;5014237;28;20097;-83
2023/06/29 09:21:48;;;;;;;1.75;1.15;;;28.00;71.80;;;;;;5017405;28;20037;-83
2023/06/29 09:24:18;;;;;;;1.77;1.20;;;28.00;72.00;;;;;;5033866;28;20378;-83
2023/06/29 09:26:48;;;;;;;5.28;1.48;;;28.10;71.80;;;;;;5012784;28;20061;-82
2023/06/29 09:29:14;;;;;;;3.05;1.60;;;28.30;71.20;;;;;;5020937;28;20021;-83
2023/06/29 09:31:39;;;;;;;1.70;1.20;;;28.30;70.80;;;;;;5013798;28;20032;-83
2023/06/29 09:34:19;;;;;;;3.70;1.85;;;28.40;70.60;;;;;;5019370;28;20088;-82
2023/06/29 09:36:45;;;;;;;;;;;28.40;70.40;;;;;;5026476;28;20500;-83
2023/06/29 09:39:15;;;;;;;3.45;1.20;;;28.50;69.40;;;;;;5022053;28;19909;-83
2023/06/29 09:41:51;;;;;;;2.53;1.27;;;28.50;68.90;;;;;;5027770;28;20022;-82
2023/06/29 09:44:19;;;;;;;1.15;1.00;;;28.50;67.40;;;;;;5027578;28;20022;-82
2023/06/29 09:47:05;;;;;;;4.35;1.35;;;28.60;65.90;;;;;;5025221;28;20037;-82
2023/06/29 09:49:31;;;;;;;2.90;1.00;;;28.70;64.90;;;;;;5024173;28;20045;-83
2023/06/29 09:52:03;;;;;;;1.75;1.23;;;28.70;64.70;;;;;;5020403;28;20032;-82
2023/06/29 09:54:34;;;;;;;3.08;1.10;;;28.80;64.10;;;;;;5023187;28;20691;-82
2023/06/29 09:57:00;;;;;;;3.00;1.30;;;28.90;63.00;;;;;;5029274;28;20556;-82
2023/06/29 09:59:27;;;;;;;1.92;0.80;;;28.90;62.30;;;;;;5030766;28;20037;-82
2023/06/29 10:01:52;;;;;;;1.77;1.00;;;29.00;62.20;;;;;;5033210;28;20108;-82
2023/06/29 10:04:18;;;;;;;4.00;2.22;;;29.10;61.10;;;;;;5033059;28;20508;-78
2023/06/29 10:06:48;;;;;;;2.80;1.60;;;29.20;59.70;;;;;;5033258;28;20458;-78
2023/06/29 10:09:18;;;;;;;4.95;1.63;;;29.20;59.60;;;;;;5031970;28;20065;-78
2023/06/29 10:11:45;;;;;;;;;;;29.40;59.40;;;;;;5033578;28;20068;-78
2023/06/29 10:14:13;;;;;;;1.27;1.00;;;29.40;57.30;;;;;;5032368;28;19909;-78
2023/06/29 10:16:45;;;;;;;1.02;0.88;;;29.50;58.10;;;;;;5032611;28;20112;-79
2023/06/29 10:19:23;;;;;;;1.70;0.88;;;29.70;55.40;;;;;;5032827;28;20025;-79
2023/06/29 10:21:59;;;;;;;1.20;0.80;;;29.70;55.60;;;;;;5033055;28;20032;-79
2023/06/29 10:24:31;;;;;;;1.67;1.00;;;29.90;56.60;;;;;;5018758;28;20033;-79
2023/06/29 10:26:58;;;;;;;1.70;0.93;;;30.00;56.80;;;;;;5013404;28;20018;-80
2023/06/29 10:29:24;;;;;;;2.38;1.02;;;30.10;57.00;;;;;;5014245;28;20025;-79
2023/06/29 10:31:57;;;;;;;3.00;1.20;;;30.30;55.10;;;;;;5029164;28;20351;-79
2023/06/29 10:34:25;;;;;;;1.70;1.30;;;30.40;55.70;;;;;;5032769;28;20033;-79
2023/06/29 10:36:52;;;;;;;1.70;1.40;;;30.40;56.10;;;;;;5032825;28;20030;-79
2023/06/29 10:39:46;;;;;;;2.78;1.17;;;30.50;55.50;;;;;;5010796;28;20042;-78
2023/06/29 10:42:32;;;;;;;2.33;1.27;;;30.60;54.90;;;;;;5032164;28;20033;-78
2023/06/29 10:44:58;;;;;;;1.38;0.93;;;30.60;54.60;;;;;;5031741;28;20030;-78
2023/06/29 10:47:28;;;;;;;4.32;1.00;;;30.70;55.10;;;;;;5032788;28;20034;-79
2023/06/29 10:50:09;;;;;;;1.25;0.77;;;30.80;55.20;;;;;;5031709;28;21884;-78
2023/06/29 10:52:38;;;;;;;2.97;1.00;;;30.80;54.20;;;;;;5013449;28;20434;-79
2023/06/29 10:55:25;;;;;;;1.70;1.07;;;31.00;54.20;;;;;;5031572;28;20038;-79
2023/06/29 10:57:54;;;;;;;1.13;1.02;;;31.00;53.40;;;;;;5031443;28;20041;-78
2023/06/29 11:00:21;;;;;;;3.03;1.27;;;31.20;54.00;;;;;;5031806;28;20030;-80
2023/06/29 11:02:48;;;;;;;1.98;0.80;;;31.30;52.70;;;;;;5013818;28;20048;-80
2023/06/29 11:05:15;;;;;;;2.15;0.90;;;31.40;50.20;;;;;;5023765;28;20036;-80
2023/06/29 11:07:41;;;;;;;1.60;1.10;;;31.50;50.20;;;;;;5032681;28;20026;-80
2023/06/29 11:10:08;;;;;;;1.13;0.80;;;31.70;50.90;;;;;;5031326;28;20513;-80
2023/06/29 11:12:37;;;;;;;2.13;0.88;;;31.80;50.40;;;;;;5012967;28;20042;-80
2023/06/29 11:15:04;;;;;;;1.35;0.88;;;31.90;48.90;;;;;;5025478;28;20038;-80
2023/06/29 11:17:30;;;;;;;1.67;0.80;;;32.00;47.40;;;;;;5032609;28;20475;-80
2023/06/29 11:19:55;;;;;;;1.55;0.80;;;32.20;46.40;;;;;;5032842;28;20025;-80
2023/06/29 11:22:21;;;;;;;4.50;0.90;;;32.30;45.40;;;;;;5032183;28;20033;-80
2023/06/29 11:24:47;;;;;;;1.70;0.82;;;32.50;45.40;;;;;;5032158;28;20449;-80
2023/06/29 11:27:18;;;;;;;1.50;1.08;;;32.70;44.70;;;;;;5031229;28;20156;-80
2023/06/29 11:29:44;;;;;;;3.08;1.45;;;32.80;43.70;;;;;;5014669;28;20030;-80
2023/06/29 11:32:12;;;;;;;1.00;0.90;;;33.00;41.80;;;;;;5028416;28;20044;-80
2023/06/29 11:34:38;;;;;;;1.02;0.90;;;33.20;43.60;;;;;;5035646;28;20025;-80
2023/06/29 11:37:04;;;;;;;2.58;1.30;;;33.40;44.00;;;;;;5031232;28;20111;-80
2023/06/29 11:39:30;;;;;;;1.25;1.08;;;33.80;44.20;;;;;;5035948;28;20643;-80
2023/06/29 11:41:56;;;;;;;1.30;1.10;;;34.20;43.90;;;;;;5033788;28;20033;-80
2023/06/29 11:44:25;;;;;;;1.40;0.90;;;34.60;42.80;;;;;;5035200;28;20076;-80
2023/06/29 11:46:56;;;;;;;1.30;0.85;;;35.00;42.10;;;;;;5035503;28;20040;-80
2023/06/29 11:49:22;;;;;;;2.75;1.13;;;35.30;41.20;;;;;;5035676;28;20028;-79
2023/06/29 11:51:49;;;;;;;0.95;0.82;;;35.50;41.20;;;;;;5033891;28;20474;-82
2023/06/29 11:54:15;;;;;;;1.60;1.08;;;35.70;40.80;;;;;;5035089;28;20148;-82
2023/06/29 11:56:43;;;;;;;1.15;0.80;;;35.80;40.00;;;;;;5034994;28;20048;-83
2023/06/29 11:59:12;;;;;;;2.72;1.08;;;36.00;40.10;;;;;;5016538;28;20030;-82
2023/06/29 12:01:38;;;;;;;1.35;1.00;;;36.20;39.60;;;;;;5015407;28;20057;-83
2023/06/29 12:04:05;;;;;;;4.18;1.15;;;36.30;39.70;;;;;;5021183;28;20374;-83
2023/06/29 12:06:33;;;;;;;2.25;1.00;;;36.50;39.70;;;;;;5015640;28;20532;-83
2023/06/29 12:08:59;;;;;;;1.52;0.90;;;36.50;39.10;;;;;;5015806;28;20081;-83
2023/06/29 12:11:25;;;;;;;2.42;1.20;;;36.70;39.10;;;;;;5018723;28;20401;-82
2023/06/29 12:13:56;;;;;;;3.47;1.20;;;36.80;38.50;;;;;;5030102;28;20026;-83
2023/06/29 12:16:22;;;;;;;1.80;1.05;;;36.90;37.50;;;;;;5009567;28;20050;-83
2023/06/29 12:18:48;;;;;;;1.00;0.90;;;37.00;37.80;;;;;;5014325;28;20060;-81
2023/06/29 12:21:19;;;;;;;2.28;1.08;;;37.00;37.90;;;;;;5029816;28;20372;-83
2023/06/29 12:23:44;;;;;;;3.45;0.90;;;37.20;38.20;;;;;;5006348;28;20389;-83
2023/06/29 12:26:11;;;;;;;1.75;0.90;;;37.30;36.30;;;;;;5026837;28;20041;-83
2023/06/29 12:28:37;;;;;;;1.60;0.90;;;37.30;36.70;;;;;;5031788;28;20036;-83
2023/06/29 12:31:05;;;;;;;3.45;0.90;;;37.50;35.30;;;;;;5023035;28;20033;-83
2023/06/29 12:33:32;;;;;;;1.50;0.93;;;37.50;35.20;;;;;;5019957;28;20045;-83
2023/06/29 12:35:58;;;;;;;1.75;1.08;;;37.50;35.10;;;;;;5028071;28;20032;-83
2023/06/29 12:38:24;;;;;;;1.40;0.90;;;37.60;35.30;;;;;;5027539;28;20029;-83
2023/06/29 12:40:49;;;;;;;1.13;0.85;;;37.60;35.00;;;;;;5027048;28;20034;-84
2023/06/29 12:43:15;;;;;;;2.67;0.90;;;37.70;34.50;;;;;;5027193;28;20022;-83
2023/06/29 12:45:41;;;;;;;1.17;0.65;;;37.70;34.40;;;;;;5027167;28;20462;-82
2023/06/29 12:48:06;;;;;;;4.97;1.05;;;37.70;34.70;;;;;;5026500;28;20390;-83